Terminal Aerodrome Forecast
Issued by NWS

Home | Current Version | Previous Version | Text Only | Print | Product List | Glossary On
Versions: 1 2 3 4 5 6 7 8 9 10 11 12 13 14 15 16 17
070
FTUS41 KLWX 261725
TAFMTN
TAF
KMTN 261725Z 2618/2718 26009KT P6SM BKN080
     FM262100 22008KT P6SM SCT080
     FM270000 VRB04KT P6SM SCT070
     FM271600 26007KT P6SM BKN130=

USA.gov is the U.S. government's official web portal to all federal, state and local government web resources and services.